createdAt,value
2019-02-14T00:00:07.995Z,3.69
2019-02-14T00:01:07.971Z,3.69
2019-02-14T00:02:07.968Z,3.60
2019-02-14T00:03:07.962Z,3.61
2019-02-14T00:04:07.972Z,3.58
2019-02-14T00:05:15.899Z,3.52
2019-02-14T00:06:08.925Z,3.54
2019-02-14T00:07:07.911Z,3.61
2019-02-14T00:08:07.908Z,3.57
2019-02-14T00:09:07.908Z,3.50
2019-02-14T00:10:07.891Z,3.50
2019-02-14T00:11:07.871Z,3.51
2019-02-14T00:12:07.871Z,3.47
2019-02-14T00:13:07.855Z,3.55
2019-02-14T00:14:07.849Z,3.50
2019-02-14T00:15:07.846Z,3.52
2019-02-14T00:16:07.839Z,3.55
2019-02-14T00:17:07.805Z,3.52
2019-02-14T00:18:07.810Z,3.48
2019-02-14T00:19:07.801Z,3.50
2019-02-14T00:20:07.788Z,3.45
2019-02-14T00:21:07.775Z,3.36
2019-02-14T00:22:07.751Z,3.40
2019-02-14T00:23:07.750Z,3.35
2019-02-14T00:24:07.794Z,3.39
2019-02-14T00:25:07.721Z,3.33
2019-02-14T00:26:07.708Z,3.32
2019-02-14T00:27:07.705Z,3.39
2019-02-14T00:28:07.684Z,3.35
2019-02-14T00:29:07.693Z,3.31
2019-02-14T00:30:07.668Z,3.29
2019-02-14T00:31:07.664Z,3.20
2019-02-14T00:32:07.650Z,3.10
2019-02-14T00:33:07.637Z,3.24
2019-02-14T00:34:07.665Z,3.24
2019-02-14T00:35:07.643Z,3.31
2019-02-14T00:36:07.615Z,3.33
2019-02-14T00:37:07.599Z,3.40
2019-02-14T00:38:07.591Z,3.39
2019-02-14T00:39:07.601Z,3.20
2019-02-14T00:40:07.717Z,3.13
2019-02-14T00:41:07.563Z,2.93
2019-02-14T00:42:07.547Z,2.97
2019-02-14T00:43:07.532Z,2.99
2019-02-14T00:44:07.540Z,2.85
2019-02-14T00:45:07.529Z,2.87
2019-02-14T00:46:07.507Z,2.89
2019-02-14T00:47:07.534Z,2.90
2019-02-14T00:48:07.488Z,3.03
2019-02-14T00:49:07.526Z,2.99
2019-02-14T00:50:07.460Z,3.06
2019-02-14T00:51:07.444Z,3.05
2019-02-14T00:52:07.437Z,3.06
2019-02-14T00:53:07.433Z,3.24
2019-02-14T00:54:07.439Z,3.18
2019-02-14T00:55:07.415Z,3.23
2019-02-14T00:56:07.390Z,3.20
2019-02-14T00:57:07.382Z,3.24
2019-02-14T00:58:07.374Z,3.26
2019-02-14T00:59:07.363Z,3.23
2019-02-14T01:00:07.369Z,3.14
2019-02-14T01:01:07.342Z,3.05
2019-02-14T01:02:07.328Z,3.06
2019-02-14T01:03:07.318Z,3.08
2019-02-14T01:04:07.307Z,3.05
2019-02-14T01:05:07.315Z,3.00
2019-02-14T01:06:07.290Z,2.99
2019-02-14T01:07:07.281Z,2.99
2019-02-14T01:08:07.274Z,2.99
2019-02-14T01:09:07.253Z,2.96
2019-02-14T01:10:07.260Z,2.99
2019-02-14T01:11:07.233Z,2.95
2019-02-14T01:12:07.227Z,2.95
2019-02-14T01:13:07.213Z,2.96
2019-02-14T01:14:07.207Z,3.08
2019-02-14T01:15:07.222Z,3.02
2019-02-14T01:16:07.190Z,3.03
2019-02-14T01:17:07.196Z,2.99
2019-02-14T01:18:07.159Z,3.00
2019-02-14T01:19:07.200Z,3.03
2019-02-14T01:20:07.155Z,2.90
2019-02-14T01:21:07.133Z,2.89
2019-02-14T01:22:07.123Z,2.82
2019-02-14T01:23:07.120Z,2.93
2019-02-14T01:24:07.096Z,2.77
2019-02-14T01:25:07.108Z,2.84
2019-02-14T01:26:07.085Z,2.84
2019-02-14T01:27:07.067Z,2.79
2019-02-14T01:28:07.056Z,2.84
2019-02-14T01:29:07.042Z,2.84
2019-02-14T01:30:07.062Z,2.84
2019-02-14T01:31:07.022Z,2.69
2019-02-14T01:32:07.021Z,2.81
2019-02-14T01:33:07.010Z,2.84
2019-02-14T01:34:06.999Z,2.90
2019-02-14T01:35:07.003Z,2.78
2019-02-14T01:36:06.970Z,2.81
2019-02-14T01:37:06.962Z,2.69
2019-02-14T01:38:06.960Z,2.69
2019-02-14T01:39:06.940Z,2.61
2019-02-14T01:40:06.943Z,2.71
2019-02-14T01:41:06.918Z,2.64
2019-02-14T01:42:06.906Z,2.61
2019-02-14T01:43:06.898Z,2.77
2019-02-14T01:44:06.893Z,2.72
2019-02-14T01:45:06.891Z,2.77
2019-02-14T01:46:06.870Z,2.78
2019-02-14T01:47:08.011Z,2.75
2019-02-14T01:48:06.845Z,2.87
2019-02-14T01:49:06.833Z,2.79
2019-02-14T01:50:06.847Z,2.85
2019-02-14T01:51:06.812Z,2.78
2019-02-14T01:52:06.809Z,2.89
2019-02-14T01:53:06.790Z,2.78
2019-02-14T01:54:06.780Z,2.77
2019-02-14T01:55:06.790Z,2.77
2019-02-14T01:56:06.763Z,2.89
2019-02-14T01:57:06.750Z,2.85
2019-02-14T01:58:06.744Z,2.87
2019-02-14T01:59:06.727Z,2.87
2019-02-14T02:00:06.745Z,2.75
2019-02-14T02:01:06.707Z,2.75
2019-02-14T02:02:06.699Z,2.71
2019-02-14T02:03:06.686Z,2.72
2019-02-14T02:04:06.684Z,2.77
2019-02-14T02:05:06.682Z,2.75
2019-02-14T02:06:06.652Z,2.72
2019-02-14T02:07:06.647Z,2.79
2019-02-14T02:08:06.633Z,2.69
2019-02-14T02:09:06.621Z,2.71
2019-02-14T02:10:06.635Z,2.69
2019-02-14T02:11:06.612Z,2.71
2019-02-14T02:12:06.590Z,2.71
2019-02-14T02:13:06.583Z,2.69
2019-02-14T02:14:06.576Z,2.71
2019-02-14T02:15:06.583Z,2.75
2019-02-14T02:16:06.550Z,2.92
2019-02-14T02:17:06.553Z,2.85
2019-02-14T02:18:06.526Z,2.78
2019-02-14T02:19:06.524Z,2.74
2019-02-14T02:20:06.522Z,2.71
2019-02-14T02:21:06.493Z,2.78
2019-02-14T02:22:06.485Z,2.69
2019-02-14T02:23:06.485Z,2.77
2019-02-14T02:24:06.466Z,2.75
2019-02-14T02:25:06.470Z,2.77
2019-02-14T02:26:06.441Z,2.85
2019-02-14T02:27:06.431Z,2.79
2019-02-14T02:28:06.420Z,2.82
2019-02-14T02:29:06.420Z,2.90
2019-02-14T02:30:06.436Z,2.85
2019-02-14T02:31:06.391Z,2.87
2019-02-14T02:32:06.379Z,2.93
2019-02-14T02:33:06.369Z,2.96
2019-02-14T02:34:06.364Z,2.89
2019-02-14T02:35:06.367Z,2.93
2019-02-14T02:36:06.344Z,2.89
2019-02-14T02:37:06.331Z,2.93
2019-02-14T02:38:06.315Z,2.87
2019-02-14T02:39:06.320Z,2.81
2019-02-14T02:40:06.331Z,2.85
2019-02-14T02:41:06.292Z,2.79
2019-02-14T02:42:06.274Z,2.69
2019-02-14T02:43:06.275Z,2.72
2019-02-14T02:44:06.253Z,2.72
2019-02-14T02:45:06.242Z,2.74
2019-02-14T02:46:06.246Z,2.72
2019-02-14T02:47:06.232Z,2.59
2019-02-14T02:48:06.213Z,2.60
2019-02-14T02:49:06.277Z,2.48
2019-02-14T02:50:06.190Z,2.56
2019-02-14T02:51:06.197Z,2.52
2019-02-14T02:52:06.172Z,2.42
2019-02-14T02:53:06.168Z,2.49
2019-02-14T02:54:06.147Z,2.43
2019-02-14T02:55:06.146Z,2.54
2019-02-14T02:56:06.191Z,2.57
2019-02-14T02:57:06.121Z,2.56
2019-02-14T02:58:06.120Z,2.56
2019-02-14T02:59:06.096Z,2.56
2019-02-14T03:00:06.085Z,2.49
2019-02-14T03:01:06.088Z,2.53
2019-02-14T03:02:06.066Z,2.38
2019-02-14T03:03:06.055Z,2.25
2019-02-14T03:04:06.069Z,2.39
2019-02-14T03:05:06.064Z,2.34
2019-02-14T03:06:10.493Z,2.35
2019-02-14T03:07:06.014Z,2.34
2019-02-14T03:08:06.001Z,2.35
2019-02-14T03:09:05.988Z,2.36
2019-02-14T03:10:05.981Z,2.36
2019-02-14T03:11:05.986Z,2.42
2019-02-14T03:12:05.959Z,2.36
2019-02-14T03:13:05.948Z,2.38
2019-02-14T03:14:05.937Z,2.25
2019-02-14T03:15:05.932Z,2.24
2019-02-14T03:16:05.936Z,2.34
2019-02-14T03:17:05.914Z,2.31
2019-02-14T03:18:05.905Z,2.31
2019-02-14T03:19:05.885Z,2.27
2019-02-14T03:20:05.873Z,2.35
2019-02-14T03:21:05.881Z,2.36
2019-02-14T03:22:05.851Z,2.28
2019-02-14T03:23:05.849Z,2.21
2019-02-14T03:24:05.830Z,2.10
2019-02-14T03:25:05.827Z,2.10
2019-02-14T03:26:05.825Z,1.95
2019-02-14T03:27:05.797Z,1.93
2019-02-14T03:28:05.793Z,1.91
2019-02-14T03:29:05.782Z,1.73
2019-02-14T03:30:05.779Z,1.90
2019-02-14T03:31:05.801Z,1.81
2019-02-14T03:32:05.746Z,1.80
2019-02-14T03:33:05.736Z,1.87
2019-02-14T03:34:05.732Z,1.77
2019-02-14T03:35:05.725Z,1.62
2019-02-14T03:36:05.726Z,1.51
2019-02-14T03:37:05.698Z,1.42
2019-02-14T03:38:05.683Z,1.44
2019-02-14T03:39:05.674Z,1.47
2019-02-14T03:40:05.663Z,1.47
2019-02-14T03:41:05.671Z,1.50
2019-02-14T03:42:05.643Z,1.51
2019-02-14T03:43:05.633Z,1.55
2019-02-14T03:44:05.618Z,1.52
2019-02-14T03:45:05.614Z,1.51
2019-02-14T03:46:05.621Z,1.60
2019-02-14T03:47:05.605Z,1.68
2019-02-14T03:48:05.579Z,1.66
2019-02-14T03:49:05.570Z,1.70
2019-02-14T03:50:05.562Z,1.79
2019-02-14T03:51:05.575Z,1.63
2019-02-14T03:52:05.540Z,1.73
2019-02-14T03:53:05.536Z,1.62
2019-02-14T03:54:05.514Z,1.70
2019-02-14T03:55:05.506Z,1.58
2019-02-14T03:56:05.512Z,1.62
2019-02-14T03:57:05.481Z,1.55
2019-02-14T03:58:05.472Z,1.52
2019-02-14T03:59:05.470Z,1.54
2019-02-14T04:00:05.450Z,1.65
2019-02-14T04:01:05.458Z,1.60
2019-02-14T04:02:05.438Z,1.48
2019-02-14T04:03:05.418Z,1.40
2019-02-14T04:04:05.408Z,1.42
2019-02-14T04:05:05.400Z,1.42
2019-02-14T04:06:05.412Z,1.33
2019-02-14T04:07:05.377Z,1.26
2019-02-14T04:08:05.368Z,1.15
2019-02-14T04:09:05.362Z,1.06
2019-02-14T04:10:05.344Z,1.05
2019-02-14T04:11:05.355Z,0.98
2019-02-14T04:12:05.323Z,1.02
2019-02-14T04:13:05.311Z,1.05
2019-02-14T04:14:05.301Z,1.00
2019-02-14T04:15:05.295Z,1.04
2019-02-14T04:16:05.305Z,1.00
2019-02-14T04:17:05.286Z,0.93
2019-02-14T04:18:05.259Z,0.97
2019-02-14T04:19:05.253Z,0.97
2019-02-14T04:20:05.237Z,0.97
2019-02-14T04:21:05.415Z,0.96
2019-02-14T04:22:05.216Z,1.05
2019-02-14T04:23:05.238Z,1.00
2019-02-14T04:24:05.193Z,1.12
2019-02-14T04:25:05.187Z,1.02
2019-02-14T04:26:05.172Z,0.96
2019-02-14T04:27:05.193Z,1.11
2019-02-14T04:28:05.158Z,1.16
2019-02-14T04:29:05.153Z,1.22
2019-02-14T04:30:05.141Z,1.23
2019-02-14T04:31:05.119Z,1.24
2019-02-14T04:32:05.125Z,1.14
2019-02-14T04:33:05.100Z,1.27
2019-02-14T04:34:05.094Z,1.29
2019-02-14T04:35:05.095Z,1.26
2019-02-14T04:36:05.067Z,1.16
2019-02-14T04:37:05.073Z,1.29
2019-02-14T04:38:05.049Z,1.15
2019-02-14T04:39:05.033Z,1.30
2019-02-14T04:40:05.026Z,1.32
2019-02-14T04:41:05.024Z,1.30
2019-02-14T04:42:05.027Z,1.22
2019-02-14T04:43:04.991Z,1.27
2019-02-14T04:44:04.985Z,1.26
2019-02-14T04:45:04.971Z,1.29
2019-02-14T04:46:04.961Z,1.37
2019-02-14T04:47:04.969Z,1.41
2019-02-14T04:48:04.955Z,1.32
2019-02-14T04:49:04.926Z,1.41
2019-02-14T04:50:04.917Z,1.40
2019-02-14T04:51:04.904Z,1.32
2019-02-14T04:52:04.912Z,1.29
2019-02-14T04:53:04.902Z,1.41
2019-02-14T04:54:04.881Z,1.33
2019-02-14T04:55:04.863Z,1.34
2019-02-14T04:56:04.852Z,1.33
2019-02-14T04:57:04.857Z,1.26
2019-02-14T04:58:04.833Z,1.29
2019-02-14T04:59:04.825Z,1.34
2019-02-14T05:00:04.814Z,1.33
2019-02-14T05:01:04.804Z,1.40
2019-02-14T05:02:04.805Z,1.41
2019-02-14T05:03:04.778Z,1.42
2019-02-14T05:04:04.769Z,1.29
2019-02-14T05:05:04.758Z,1.44
2019-02-14T05:06:04.745Z,1.41
2019-02-14T05:07:04.761Z,1.36
2019-02-14T05:08:04.728Z,1.44
2019-02-14T05:09:04.712Z,1.45
2019-02-14T05:10:04.704Z,1.47
2019-02-14T05:11:04.695Z,1.36
2019-02-14T05:12:04.705Z,1.41
2019-02-14T05:13:04.673Z,1.37
2019-02-14T05:14:04.668Z,1.41
2019-02-14T05:15:04.651Z,1.45
2019-02-14T05:16:04.639Z,1.40
2019-02-14T05:17:04.645Z,1.45
2019-02-14T05:18:04.617Z,1.41
2019-02-14T05:19:04.611Z,1.48
2019-02-14T05:20:04.603Z,1.40
2019-02-14T05:21:04.594Z,1.41
2019-02-14T05:22:04.592Z,1.45
2019-02-14T05:23:04.564Z,1.44
2019-02-14T05:24:04.553Z,1.27
2019-02-14T05:25:04.542Z,1.30
2019-02-14T05:26:04.533Z,1.33
2019-02-14T05:27:04.546Z,1.36
2019-02-14T05:28:04.520Z,1.45
2019-02-14T05:29:04.505Z,1.40
2019-02-14T05:30:04.492Z,1.37
2019-02-14T05:31:04.481Z,1.41
2019-02-14T05:32:04.485Z,1.37
2019-02-14T05:33:04.461Z,1.42
2019-02-14T05:34:04.447Z,1.47
2019-02-14T05:35:04.438Z,1.37
2019-02-14T05:36:04.428Z,1.41
2019-02-14T05:37:04.451Z,1.30
2019-02-14T05:38:04.404Z,1.36
2019-02-14T05:39:04.394Z,1.33
2019-02-14T05:40:04.384Z,1.37
2019-02-14T05:41:04.373Z,1.34
2019-02-14T05:42:04.362Z,1.47
2019-02-14T05:43:04.373Z,1.42
2019-02-14T05:44:04.339Z,1.42
2019-02-14T05:45:04.333Z,1.41
2019-02-14T05:46:04.320Z,1.41
2019-02-14T05:47:04.311Z,1.36
2019-02-14T05:48:04.315Z,1.50
2019-02-14T05:49:04.302Z,1.45
2019-02-14T05:50:04.276Z,1.50
2019-02-14T05:51:04.269Z,1.48
2019-02-14T05:52:04.257Z,1.48
2019-02-14T05:53:04.261Z,1.50
2019-02-14T05:54:04.238Z,1.51
2019-02-14T05:55:04.232Z,1.51
2019-02-14T05:56:04.215Z,1.54
2019-02-14T05:57:04.212Z,1.51
2019-02-14T05:58:04.208Z,1.52
2019-02-14T05:59:04.181Z,1.59
2019-02-14T06:00:04.176Z,1.55
2019-02-14T06:01:04.162Z,1.55
2019-02-14T06:02:04.149Z,1.55
2019-02-14T06:03:04.163Z,1.54
2019-02-14T06:04:04.127Z,1.52
2019-02-14T06:05:04.118Z,1.50
2019-02-14T06:06:04.109Z,1.54
2019-02-14T06:07:04.100Z,1.47
2019-02-14T06:08:04.110Z,1.45
2019-02-14T06:09:04.084Z,1.41
2019-02-14T06:10:04.065Z,1.37
2019-02-14T06:11:04.056Z,1.45
2019-02-14T06:12:04.054Z,1.42
2019-02-14T06:13:04.052Z,1.45
2019-02-14T06:14:04.025Z,1.45
2019-02-14T06:15:04.018Z,1.40
2019-02-14T06:16:04.015Z,1.37
2019-02-14T06:17:04.012Z,1.44
2019-02-14T06:18:04.002Z,1.33
2019-02-14T06:19:03.982Z,1.30
2019-02-14T06:20:03.962Z,1.23
2019-02-14T06:21:03.961Z,1.29
2019-02-14T06:22:03.946Z,1.24
2019-02-14T06:23:03.949Z,1.20
2019-02-14T06:24:03.917Z,1.22
2019-02-14T06:25:03.910Z,1.16
2019-02-14T06:26:03.896Z,1.20
2019-02-14T06:27:03.897Z,1.15
2019-02-14T06:28:03.906Z,1.15
2019-02-14T06:29:03.867Z,1.15
2019-02-14T06:30:03.860Z,1.14
2019-02-14T06:31:03.852Z,1.14
2019-02-14T06:32:03.830Z,1.08
2019-02-14T06:33:03.838Z,1.14
2019-02-14T06:34:03.814Z,1.11
2019-02-14T06:35:03.798Z,1.09
2019-02-14T06:36:03.803Z,1.05
2019-02-14T06:37:09.491Z,0.91
2019-02-14T06:38:04.783Z,0.96
2019-02-14T06:39:03.773Z,0.98
2019-02-14T06:40:03.750Z,0.97
2019-02-14T06:41:03.804Z,0.97
2019-02-14T06:42:03.740Z,1.04
2019-02-14T06:43:03.741Z,1.02
2019-02-14T06:44:03.703Z,0.97
2019-02-14T06:45:03.690Z,1.02
2019-02-14T06:46:03.680Z,0.96
2019-02-14T06:47:04.823Z,0.96
2019-02-14T06:48:03.693Z,1.05
2019-02-14T06:49:03.652Z,0.94
2019-02-14T06:50:03.639Z,1.09
2019-02-14T06:51:03.627Z,0.98
2019-02-14T06:52:03.616Z,1.04
2019-02-14T06:53:03.626Z,1.06
2019-02-14T06:54:03.601Z,1.08
2019-02-14T06:55:03.588Z,1.11
2019-02-14T06:56:03.577Z,1.08
2019-02-14T06:57:03.570Z,1.16
2019-02-14T06:58:03.575Z,1.11
2019-02-14T06:59:03.543Z,1.14
2019-02-14T07:00:03.538Z,1.15
2019-02-14T07:01:03.525Z,1.15
2019-02-14T07:02:03.511Z,1.18
2019-02-14T07:03:03.519Z,1.15
2019-02-14T07:04:03.490Z,1.15
2019-02-14T07:05:03.480Z,1.22
2019-02-14T07:06:03.480Z,1.16
2019-02-14T07:07:03.456Z,1.18
2019-02-14T07:08:03.482Z,1.15
2019-02-14T07:09:03.436Z,1.20
2019-02-14T07:10:03.429Z,1.24
2019-02-14T07:11:03.416Z,1.18
2019-02-14T07:12:03.405Z,1.29
2019-02-14T07:13:03.403Z,1.27
2019-02-14T07:14:03.405Z,1.36
2019-02-14T07:15:03.374Z,1.34
2019-02-14T07:16:03.363Z,1.45
2019-02-14T07:17:03.350Z,1.41
2019-02-14T07:18:03.343Z,1.45
2019-02-14T07:19:03.351Z,1.44
2019-02-14T07:20:03.318Z,1.47
2019-02-14T07:21:03.312Z,1.55
2019-02-14T07:22:03.302Z,1.54
2019-02-14T07:23:03.289Z,1.59
2019-02-14T07:24:03.298Z,1.70
2019-02-14T07:25:03.264Z,1.73
2019-02-14T07:26:03.255Z,1.62
2019-02-14T07:27:03.288Z,1.73
2019-02-14T07:28:03.242Z,1.80
2019-02-14T07:29:03.236Z,1.77
2019-02-14T07:30:03.210Z,1.84
2019-02-14T07:31:03.202Z,1.88
2019-02-14T07:32:03.189Z,1.84
2019-02-14T07:33:03.181Z,1.90
2019-02-14T07:34:04.099Z,1.83
2019-02-14T07:35:03.157Z,1.91
2019-02-14T07:36:03.151Z,2.02
2019-02-14T07:37:03.136Z,1.98
2019-02-14T07:38:03.138Z,2.07
2019-02-14T07:39:03.136Z,2.09
2019-02-14T07:40:03.115Z,2.10
2019-02-14T07:41:03.098Z,2.10
2019-02-14T07:42:03.093Z,2.20
2019-02-14T07:43:03.082Z,2.17
2019-02-14T07:44:03.079Z,2.17
2019-02-14T07:45:03.052Z,2.20
2019-02-14T07:46:03.049Z,2.23
2019-02-14T07:47:03.034Z,2.25
2019-02-14T07:48:03.022Z,2.21
2019-02-14T07:49:03.024Z,2.27
2019-02-14T07:50:03.014Z,2.30
2019-02-14T07:51:03.003Z,2.25
2019-02-14T07:52:02.991Z,2.38
2019-02-14T07:53:02.982Z,2.35
2019-02-14T07:54:02.978Z,2.30
2019-02-14T07:55:02.978Z,2.42
2019-02-14T07:56:02.941Z,2.35
2019-02-14T07:57:02.932Z,2.52
2019-02-14T07:58:02.933Z,2.45
2019-02-14T07:59:02.920Z,2.53
2019-02-14T08:00:02.895Z,2.60
2019-02-14T08:01:02.893Z,2.57
2019-02-14T08:02:02.889Z,2.59
2019-02-14T08:03:02.866Z,2.64
2019-02-14T08:04:02.868Z,2.71
2019-02-14T08:05:02.840Z,2.74
2019-02-14T08:06:02.829Z,2.75
2019-02-14T08:07:02.817Z,2.74
2019-02-14T08:08:02.823Z,2.85
2019-02-14T08:09:02.812Z,2.82
2019-02-14T08:10:02.801Z,2.84
2019-02-14T08:11:02.774Z,3.06
2019-02-14T08:12:02.768Z,3.08
2019-02-14T08:13:02.763Z,3.18
2019-02-14T08:14:02.759Z,3.21
2019-02-14T08:15:02.754Z,3.45
2019-02-14T08:16:02.743Z,3.58
2019-02-14T08:17:02.713Z,3.69
2019-02-14T08:18:02.704Z,3.84
2019-02-14T08:19:02.711Z,3.91
2019-02-14T08:20:02.688Z,3.80
2019-02-14T08:21:02.673Z,3.84
2019-02-14T08:22:02.676Z,3.70
2019-02-14T08:23:02.651Z,3.72
2019-02-14T08:24:02.660Z,3.54
2019-02-14T08:25:02.629Z,3.51
2019-02-14T08:26:10.588Z,3.52
2019-02-14T08:27:03.603Z,3.54
2019-02-14T08:28:02.601Z,3.55
2019-02-14T08:29:02.585Z,3.72
2019-02-14T08:30:02.596Z,3.76
2019-02-14T08:31:02.570Z,3.75
2019-02-14T08:32:02.553Z,3.80
2019-02-14T08:33:02.547Z,3.88
2019-02-14T08:34:02.550Z,4.08
2019-02-14T08:35:02.535Z,4.26
2019-02-14T08:36:02.522Z,4.44
2019-02-14T08:37:02.507Z,4.72
2019-02-14T08:38:02.490Z,4.91
2019-02-14T08:39:02.484Z,4.94
2019-02-14T08:40:02.492Z,4.99
2019-02-14T08:41:02.466Z,5.17
2019-02-14T08:42:02.447Z,5.17
2019-02-14T08:43:02.441Z,5.28
2019-02-14T08:44:02.442Z,5.40
2019-02-14T08:45:02.445Z,5.49
2019-02-14T08:46:02.419Z,5.67
2019-02-14T08:47:02.397Z,5.89
2019-02-14T08:48:02.387Z,5.91
2019-02-14T08:49:02.374Z,5.91
2019-02-14T08:50:02.385Z,5.67
2019-02-14T08:51:02.355Z,5.65
2019-02-14T08:52:02.363Z,5.81
2019-02-14T08:53:02.332Z,5.82
2019-02-14T08:54:02.334Z,6.01
2019-02-14T08:55:02.332Z,6.28
2019-02-14T08:56:02.309Z,6.34
2019-02-14T08:57:02.291Z,6.34
2019-02-14T08:58:02.297Z,6.40
2019-02-14T08:59:02.276Z,6.40
2019-02-14T09:00:02.295Z,6.58
2019-02-14T09:01:02.265Z,6.69
2019-02-14T09:02:02.249Z,6.74
2019-02-14T09:03:02.231Z,6.87
2019-02-14T09:04:02.228Z,7.15
2019-02-14T09:05:02.241Z,7.17
2019-02-14T09:06:02.200Z,7.31
2019-02-14T09:07:02.196Z,7.37
2019-02-14T09:08:02.183Z,7.34
2019-02-14T09:09:02.189Z,7.57
2019-02-14T09:10:02.177Z,7.74
2019-02-14T09:11:02.166Z,7.86
2019-02-14T09:12:02.136Z,7.58
2019-02-14T09:13:02.128Z,7.58
2019-02-14T09:14:02.115Z,7.87
2019-02-14T09:15:02.131Z,8.12
2019-02-14T09:16:02.095Z,8.43
2019-02-14T09:17:02.084Z,8.70
2019-02-14T09:18:02.075Z,8.89
2019-02-14T09:19:02.065Z,9.01
2019-02-14T09:20:02.078Z,9.08
2019-02-14T09:21:02.039Z,9.26
2019-02-14T09:22:02.602Z,9.42
2019-02-14T09:23:02.019Z,9.21
2019-02-14T09:24:02.008Z,9.15
2019-02-14T09:25:02.039Z,9.04
2019-02-14T09:26:02.524Z,9.18
2019-02-14T09:27:01.980Z,9.36
2019-02-14T09:28:01.984Z,9.46
2019-02-14T09:29:01.960Z,9.51
2019-02-14T09:30:01.963Z,9.74
2019-02-14T09:31:01.935Z,9.87
2019-02-14T09:32:01.923Z,9.87
2019-02-14T09:33:01.926Z,9.84
2019-02-14T09:34:01.906Z,9.99
2019-02-14T09:35:01.909Z,10.18
2019-02-14T09:36:01.880Z,10.52
2019-02-14T09:37:01.875Z,10.59
2019-02-14T09:38:03.646Z,10.70
2019-02-14T09:39:01.845Z,10.94
2019-02-14T09:40:01.852Z,10.70
2019-02-14T09:41:01.831Z,10.67
2019-02-14T09:42:01.819Z,10.82
2019-02-14T09:43:01.809Z,10.96
2019-02-14T09:44:01.803Z,10.64
2019-02-14T09:45:01.797Z,10.86
2019-02-14T09:46:01.779Z,10.84
2019-02-14T09:47:01.757Z,10.99
2019-02-14T09:48:01.747Z,10.82
2019-02-14T09:49:01.745Z,10.74
2019-02-14T09:50:01.746Z,10.71
2019-02-14T09:51:01.727Z,11.04
2019-02-14T09:52:01.702Z,11.04
2019-02-14T09:53:01.706Z,11.18
2019-02-14T09:54:01.698Z,11.10
2019-02-14T09:55:01.696Z,11.04
2019-02-14T09:56:01.666Z,10.85
2019-02-14T09:57:01.660Z,10.68
2019-02-14T09:58:01.638Z,10.38
2019-02-14T09:59:01.632Z,10.56
2019-02-14T10:00:01.643Z,10.91
2019-02-14T10:01:01.603Z,11.27
2019-02-14T10:02:01.597Z,11.85
2019-02-14T10:03:01.580Z,12.14
2019-02-14T10:04:01.586Z,12.35
2019-02-14T10:05:01.600Z,12.16
2019-02-14T10:06:01.561Z,11.96
2019-02-14T10:07:01.544Z,12.47
2019-02-14T10:08:01.534Z,12.85
2019-02-14T10:09:01.533Z,13.19
2019-02-14T10:10:01.521Z,13.44
2019-02-14T10:11:01.504Z,13.45
2019-02-14T10:12:01.487Z,13.79
2019-02-14T10:13:01.472Z,13.66
2019-02-14T10:14:03.585Z,13.84
2019-02-14T10:15:01.476Z,13.25
2019-02-14T10:16:01.440Z,13.01
2019-02-14T10:17:01.432Z,12.54
2019-02-14T10:18:01.420Z,12.56
2019-02-14T10:19:01.408Z,12.72
2019-02-14T10:20:01.424Z,12.39
2019-02-14T10:21:01.411Z,12.17
2019-02-14T10:22:01.375Z,11.96
2019-02-14T10:23:01.365Z,11.72
2019-02-14T10:24:01.356Z,11.72
2019-02-14T10:25:01.369Z,11.57
2019-02-14T10:26:01.340Z,11.39
2019-02-14T10:27:01.336Z,11.00
2019-02-14T10:28:01.316Z,11.03
2019-02-14T10:29:01.301Z,10.99
2019-02-14T10:30:01.315Z,10.91
2019-02-14T10:31:01.279Z,10.84
2019-02-14T10:32:01.273Z,10.36
2019-02-14T10:33:01.261Z,10.61
2019-02-14T10:34:01.268Z,10.61
2019-02-14T10:35:01.263Z,10.71
2019-02-14T10:36:01.227Z,10.99
2019-02-14T10:37:01.215Z,11.04
2019-02-14T10:38:01.210Z,11.21
2019-02-14T10:39:01.203Z,11.46
2019-02-14T10:40:01.191Z,11.57
2019-02-14T10:41:01.217Z,11.47
2019-02-14T10:42:01.160Z,11.40
2019-02-14T10:43:01.157Z,11.57
2019-02-14T10:44:01.144Z,11.75
2019-02-14T10:45:01.128Z,11.65
2019-02-14T10:46:01.132Z,11.57
2019-02-14T10:47:01.112Z,11.49
2019-02-14T10:48:01.110Z,11.09
2019-02-14T10:49:01.087Z,10.99
2019-02-14T10:50:01.080Z,11.17
2019-02-14T10:51:01.084Z,11.25
2019-02-14T10:52:01.060Z,11.40
2019-02-14T10:53:01.043Z,11.61
2019-02-14T10:54:01.043Z,11.49
2019-02-14T10:55:01.021Z,11.24
2019-02-14T10:56:01.032Z,11.35
2019-02-14T10:57:00.999Z,11.70
2019-02-14T10:58:00.991Z,12.05
2019-02-14T10:59:00.978Z,12.27
2019-02-14T11:00:00.969Z,12.20
2019-02-14T11:01:00.980Z,12.60
2019-02-14T11:02:00.949Z,12.93
2019-02-14T11:03:00.960Z,13.28
2019-02-14T11:04:00.926Z,13.66
2019-02-14T11:05:00.916Z,13.89
2019-02-14T11:06:00.931Z,14.25
2019-02-14T11:07:00.893Z,14.83
2019-02-14T11:08:00.887Z,15.34
2019-02-14T11:09:00.876Z,15.80
2019-02-14T11:10:00.860Z,15.87
2019-02-14T11:11:00.885Z,16.25
2019-02-14T11:12:00.839Z,16.85
2019-02-14T11:13:00.830Z,17.22
2019-02-14T11:14:00.822Z,17.21
2019-02-14T11:15:00.809Z,17.68
2019-02-14T11:16:00.813Z,17.89
2019-02-14T11:17:00.788Z,18.03
2019-02-14T11:18:00.789Z,18.23
2019-02-14T11:19:00.764Z,18.15
2019-02-14T11:20:00.756Z,18.11
2019-02-14T11:21:00.762Z,18.12
2019-02-14T11:22:00.733Z,18.65
2019-02-14T11:23:00.725Z,18.80
2019-02-14T11:24:00.730Z,18.45
2019-02-14T11:25:00.728Z,18.63
2019-02-14T11:26:00.709Z,19.19
2019-02-14T11:27:00.679Z,19.74
2019-02-14T11:28:00.671Z,20.28
2019-02-14T11:29:00.664Z,20.82
2019-02-14T11:30:00.648Z,21.42
2019-02-14T11:31:00.665Z,21.14
2019-02-14T11:32:00.633Z,21.35
2019-02-14T11:33:00.614Z,21.47
2019-02-14T11:34:00.604Z,21.44
2019-02-14T11:35:00.594Z,21.29
2019-02-14T11:36:00.599Z,20.62
2019-02-14T11:37:00.581Z,20.64
2019-02-14T11:38:00.569Z,20.91
2019-02-14T11:39:00.551Z,21.13
2019-02-14T11:40:00.541Z,20.77
2019-02-14T11:41:00.548Z,20.43
2019-02-14T11:42:00.519Z,19.92
2019-02-14T11:43:00.520Z,18.84
2019-02-14T11:44:02.737Z,18.20
2019-02-14T11:45:00.491Z,17.22
2019-02-14T11:46:00.497Z,16.78
2019-02-14T11:47:00.468Z,15.43
2019-02-14T11:48:00.463Z,14.96
2019-02-14T11:49:00.471Z,14.42
2019-02-14T11:50:00.436Z,13.97
2019-02-14T11:51:00.453Z,13.36
2019-02-14T11:52:00.415Z,12.87
2019-02-14T11:53:00.404Z,12.68
2019-02-14T11:54:00.397Z,12.72
2019-02-14T11:55:00.394Z,12.79
2019-02-14T11:56:00.403Z,12.53
2019-02-14T11:57:00.364Z,12.68
2019-02-14T11:58:00.352Z,12.75
2019-02-14T11:59:00.339Z,13.00
2019-02-14T12:00:00.336Z,13.07
2019-02-14T12:01:00.360Z,13.22
2019-02-14T12:02:00.332Z,13.20
2019-02-14T12:03:00.317Z,13.87
2019-02-14T12:04:00.287Z,15.02
2019-02-14T12:05:00.275Z,16.35
2019-02-14T12:06:00.268Z,16.89
2019-02-14T12:07:00.278Z,17.21
2019-02-14T12:08:00.262Z,17.90
2019-02-14T12:09:00.710Z,18.41
2019-02-14T12:10:00.239Z,19.13
2019-02-14T12:11:00.211Z,19.92
2019-02-14T12:12:00.218Z,20.06
2019-02-14T12:13:00.201Z,20.32
2019-02-14T12:14:00.204Z,20.26
2019-02-14T12:15:00.280Z,20.33
2019-02-14T12:16:00.159Z,20.11
2019-02-14T12:17:00.179Z,19.94
2019-02-14T12:18:00.138Z,19.94
2019-02-14T12:19:00.131Z,19.40
2019-02-14T12:20:00.309Z,19.78
2019-02-14T12:21:00.116Z,19.98
2019-02-14T12:22:00.116Z,20.02
2019-02-14T12:23:00.084Z,19.87
2019-02-14T12:24:00.074Z,19.74
2019-02-14T12:25:00.148Z,19.74
2019-02-14T12:26:00.068Z,19.23
2019-02-14T12:27:00.064Z,18.85
2019-02-14T12:28:00.031Z,17.84
2019-02-14T12:29:00.020Z,16.76
2019-02-14T12:30:00.009Z,16.23
2019-02-14T12:31:00.001Z,15.65
2019-02-14T12:32:00.019Z,15.13
2019-02-14T12:32:59.980Z,14.65
2019-02-14T12:33:59.966Z,14.27
2019-02-14T12:34:59.957Z,14.00
2019-02-14T12:35:59.947Z,13.64
2019-02-14T12:36:59.952Z,13.32
2019-02-14T12:37:59.953Z,13.19
2019-02-14T12:39:08.366Z,12.96
2019-02-14T12:40:00.967Z,13.03
2019-02-14T12:40:59.893Z,13.10
2019-02-14T12:41:59.898Z,13.14
2019-02-14T12:42:59.871Z,13.23
2019-02-14T12:43:59.878Z,13.20
2019-02-14T12:44:59.849Z,13.23
2019-02-14T12:45:59.840Z,13.41
2019-02-14T12:46:59.847Z,13.38
2019-02-14T12:47:59.819Z,13.36
2019-02-14T12:48:59.809Z,13.33
2019-02-14T12:49:59.813Z,13.22
2019-02-14T12:50:59.784Z,13.26
2019-02-14T12:51:59.814Z,13.17
2019-02-14T12:52:59.763Z,13.17
2019-02-14T12:53:59.753Z,13.19
2019-02-14T12:54:59.743Z,13.30
2019-02-14T12:55:59.731Z,13.23
2019-02-14T12:56:59.775Z,13.25
2019-02-14T12:57:59.712Z,13.25
2019-02-14T12:58:59.700Z,13.14
2019-02-14T12:59:59.691Z,13.05
2019-02-14T13:00:59.680Z,12.97
2019-02-14T13:01:59.689Z,13.03
2019-02-14T13:02:59.683Z,13.00
2019-02-14T13:03:59.649Z,13.01
2019-02-14T13:04:59.636Z,12.96
2019-02-14T13:05:59.636Z,13.03
2019-02-14T13:06:59.632Z,13.07
2019-02-14T13:07:59.604Z,13.03
2019-02-14T13:08:59.610Z,13.04
2019-02-14T13:09:59.582Z,13.15
2019-02-14T13:10:59.578Z,13.07